| time (UTC) | temp F | wind direction | speed MPH | gust MPH | rain 1hr in | rain 24hr in | rain mn in | humidity % | barometer mb |
| 20260503184732 | 66 | 105 | 8.0 | 11.0 | 0.00 | 0.00 | 0.00 | 55 | 1008.0 |
| 20260503184229 | 65 | 70 | 4.0 | 7.0 | 0.00 | 0.00 | 0.00 | 58 | 1007.7 |
| 20260503183725 | 64 | 77 | 3.0 | 5.0 | 0.00 | 0.00 | 0.00 | 60 | 1008.0 |
| 20260503183223 | 63 | 103 | 5.0 | 6.0 | 0.00 | 0.00 | 0.00 | 59 | 1008.0 |
| 20260503182721 | 63 | 106 | 5.0 | 6.0 | 0.00 | 0.00 | 0.00 | 59 | 1008.0 |
| 20260503182219 | 63 | 99 | 6.0 | 8.0 | 0.00 | 0.00 | 0.00 | 57 | 1008.0 |
| 20260503181715 | 63 | 65 | 6.0 | 9.0 | 0.00 | 0.00 | 0.00 | 59 | 1008.0 |
| 20260503181213 | 63 | 43 | 7.0 | 9.0 | 0.00 | 0.00 | 0.00 | 59 | 1008.3 |
| 20260503180709 | 63 | 58 | 7.0 | 11.0 | 0.00 | 0.00 | 0.00 | 58 | 1008.3 |
| 20260503180208 | 63 | 132 | 7.0 | 13.0 | 0.00 | 0.00 | 0.00 | 59 | 1008.3 |
| 20260503175704 | 62 | 153 | 3.0 | 5.0 | 0.00 | 0.00 | 0.00 | 63 | 1008.7 |
| 20260503175202 | 62 | 64 | 10.0 | 16.0 | 0.00 | 0.00 | 0.00 | 59 | 1008.7 |
| 20260503174657 | 62 | 37 | 7.0 | 9.0 | 0.00 | 0.00 | 0.00 | 62 | 1008.7 |
| 20260503174155 | 62 | 148 | 5.0 | 9.0 | 0.00 | 0.00 | 0.00 | 62 | 1008.7 |
| 20260503173650 | 61 | 91 | 3.0 | 3.0 | 0.00 | 0.00 | 0.00 | 61 | 1008.7 |
| 20260503173146 | 62 | 109 | 5.0 | 7.0 | 0.00 | 0.00 | 0.00 | 61 | 1009.0 |
| 20260503172644 | 61 | 65 | 3.0 | 5.0 | 0.00 | 0.00 | 0.00 | 64 | 1009.0 |
| 20260503172141 | 60 | 44 | 4.0 | 7.0 | 0.00 | 0.00 | 0.00 | 64 | 1009.3 |
| 20260503171637 | 59 | 61 | 3.0 | 5.0 | 0.00 | 0.00 | 0.00 | 66 | 1009.3 |
| 20260503171135 | 60 | 46 | 8.0 | 10.0 | 0.00 | 0.00 | 0.00 | 63 | 1009.3 |
| 20260503170632 | 60 | 140 | 2.0 | 2.0 | 0.00 | 0.00 | 0.00 | 67 | 1009.3 |
| 20260503170128 | 58 | 44 | 5.0 | 7.0 | 0.00 | 0.00 | 0.00 | 67 | 1009.7 |
| 20260503150520 | 56 | 150 | 3.0 | 3.0 | 0.00 | 0.00 | 0.00 | 66 | 1010.8 |
| 20260503131413 | 53 | 173 | 1.0 | 2.0 | 0.00 | 0.00 | 0.00 | 65 | 1011.8 |
| 20260503130910 | 51 | 106 | 3.0 | 5.0 | 0.00 | 0.00 | 0.00 | 68 | 1011.8 |
| 20260503130407 | 51 | 136 | 2.0 | 3.0 | 0.00 | 0.00 | 0.00 | 68 | 1011.8 |
| 20260503110811 | 48 | 111 | 2.0 | 3.0 | 0.00 | 0.00 | 0.00 | 66 | 1011.8 |
| 20260503110308 | 48 | 110 | 1.0 | 1.0 | 0.00 | 0.00 | 0.00 | 66 | 1011.5 |
| 20260503100234 | 48 | 98 | 3.0 | 7.0 | 0.00 | 0.00 | 0.00 | 64 | 1012.2 |
| 20260503090159 | 49 | 208 | 3.0 | 5.0 | 0.00 | 0.00 | 0.00 | 63 | 1012.2 |
| 20260503081636 | 47 | 62 | 3.0 | 3.0 | 0.00 | 0.00 | 0.00 | 66 | 1012.8 |
| 20260503081132 | 47 | 74 | 2.0 | 2.0 | 0.00 | 0.00 | 0.00 | 66 | 1012.8 |
| 20260503080628 | 47 | 22 | 2.0 | 2.0 | 0.00 | 0.00 | 0.00 | 66 | 1013.2 |
| 20260503080125 | 47 | 24 | 1.0 | 1.0 | 0.00 | 0.00 | 0.00 | 67 | 1013.2 |
| 20260503072602 | 48 | 85 | 3.0 | 3.0 | 0.00 | 0.00 | 0.00 | 65 | 1013.2 |
| 20260503072059 | 48 | 77 | 2.0 | 2.0 | 0.00 | 0.00 | 0.00 | 66 | 1013.2 |
| 20260503071556 | 47 | 66 | 2.0 | 2.0 | 0.00 | 0.00 | 0.00 | 65 | 1013.2 |
| 20260503071053 | 47 | 26 | 1.0 | 2.0 | 0.00 | 0.00 | 0.00 | 65 | 1013.2 |
| 20260503070549 | 47 | 95 | 5.0 | 7.0 | 0.00 | 0.00 | 0.00 | 66 | 1013.2 |
| 20260503054843 | 46 | 64 | 1.0 | 1.0 | 0.00 | 0.00 | 0.00 | 66 | 1013.9 |
| 20260503054334 | 46 | 63 | 1.0 | 1.0 | 0.00 | 0.00 | 0.00 | 68 | 1013.9 |
| 20260503053832 | 45 | 347 | 1.0 | 1.0 | 0.00 | 0.00 | 0.00 | 69 | 1013.9 |
| 20260503053330 | 45 | 343 | 0.0 | 0.0 | 0.00 | 0.00 | 0.00 | 70 | 1014.3 |
| 20260503052826 | 44 | 8 | 3.0 | 3.0 | 0.00 | 0.00 | 0.00 | 70 | 1014.3 |
| 20260503052323 | 44 | 343 | 0.0 | 1.0 | 0.00 | 0.00 | 0.00 | 71 | 1014.3 |
| 20260503051819 | 44 | 343 | 0.0 | 0.0 | 0.00 | 0.00 | 0.00 | 72 | 1014.3 |
| 20260503051316 | 44 | 350 | 1.0 | 2.0 | 0.00 | 0.00 | 0.00 | 72 | 1014.3 |
| 20260503050812 | 43 | 343 | 0.0 | 0.0 | 0.00 | 0.00 | 0.00 | 73 | 1014.3 |
| 20260503050309 | 43 | 343 | 1.0 | 1.0 | 0.00 | 0.00 | 0.00 | 75 | 1014.3 |
| 20260503045807 | 42 | 343 | 0.0 | 1.0 | 0.00 | 0.00 | 0.00 | 78 | 1014.3 |
| 20260503045305 | 41 | 343 | 0.0 | 1.0 | 0.00 | 0.00 | 0.00 | 79 | 1014.3 |
| 20260503044800 | 41 | 343 | 0.0 | 0.0 | 0.00 | 0.00 | 0.00 | 79 | 1014.3 |
| 20260503044257 | 41 | 343 | 0.0 | 0.0 | 0.00 | 0.00 | 0.00 | 80 | 1014.6 |
| 20260503043755 | 41 | 343 | 0.0 | 0.0 | 0.00 | 0.00 | 0.00 | 81 | 1014.3 |
| 20260503043251 | 41 | 343 | 0.0 | 0.0 | 0.00 | 0.00 | 0.00 | 82 | 1014.3 |
| 20260503042747 | 41 | 343 | 0.0 | 0.0 | 0.00 | 0.00 | 0.00 | 83 | 1014.6 |
| 20260503042244 | 40 | 343 | 0.0 | 0.0 | 0.00 | 0.00 | 0.00 | 84 | 1014.6 |
| 20260503041739 | 40 | 343 | 0.0 | 0.0 | 0.00 | 0.00 | 0.00 | 83 | 1014.6 |
| 20260503041237 | 40 | 343 | 0.0 | 0.0 | 0.00 | 0.00 | 0.00 | 83 | 1014.6 |
| 20260503040735 | 40 | 343 | 0.0 | 0.0 | 0.00 | 0.00 | 0.00 | 83 | 1015.0 |
| 20260503040232 | 40 | 343 | 0.0 | 0.0 | 0.00 | 0.00 | 0.00 | 82 | 1015.0 |
| 20260503035729 | 41 | 343 | 0.0 | 0.0 | 0.00 | 0.00 | 0.00 | 82 | 1015.0 |
| 20260503035226 | 41 | 343 | 0.0 | 0.0 | 0.00 | 0.00 | 0.00 | 81 | 1014.6 |
| 20260503034724 | 41 | 343 | 0.0 | 0.0 | 0.00 | 0.00 | 0.00 | 80 | 1014.6 |
| 20260503034220 | 42 | 343 | 0.0 | 0.0 | 0.00 | 0.00 | 0.00 | 80 | 1015.0 |
| 20260503033718 | 42 | 343 | 0.0 | 0.0 | 0.00 | 0.00 | 0.00 | 80 | 1015.0 |
| 20260503033215 | 42 | 343 | 0.0 | 0.0 | 0.00 | 0.00 | 0.00 | 80 | 1015.0 |
| 20260503032714 | 42 | 343 | 0.0 | 0.0 | 0.00 | 0.00 | 0.00 | 80 | 1015.0 |
| 20260503032212 | 42 | 343 | 0.0 | 0.0 | 0.00 | 0.00 | 0.00 | 79 | 1015.3 |
| 20260503031708 | 42 | 343 | 1.0 | 1.0 | 0.00 | 0.00 | 0.00 | 78 | 1015.3 |
| 20260503031207 | 43 | 343 | 0.0 | 0.0 | 0.00 | 0.00 | 0.00 | 78 | 1015.0 |
| 20260503030702 | 43 | 343 | 1.0 | 1.0 | 0.00 | 0.00 | 0.00 | 77 | 1015.3 |
| 20260503030159 | 43 | 343 | 1.0 | 1.0 | 0.00 | 0.00 | 0.00 | 77 | 1015.3 |
| 20260503025656 | 43 | 343 | 0.0 | 1.0 | 0.00 | 0.00 | 0.00 | 77 | 1015.3 |
| 20260503025154 | 43 | 343 | 0.0 | 1.0 | 0.00 | 0.00 | 0.00 | 76 | 1015.6 |
| 20260503024650 | 43 | 343 | 0.0 | 1.0 | 0.00 | 0.00 | 0.00 | 76 | 1015.6 |
| 20260503024148 | 43 | 343 | 0.0 | 1.0 | 0.00 | 0.00 | 0.00 | 76 | 1015.6 |
| 20260503023644 | 43 | 343 | 2.0 | 2.0 | 0.00 | 0.00 | 0.00 | 76 | 1015.3 |
| 20260503023141 | 43 | 344 | 1.0 | 1.0 | 0.00 | 0.00 | 0.00 | 76 | 1015.6 |
| 20260503022637 | 43 | 343 | 0.0 | 0.0 | 0.00 | 0.00 | 0.00 | 75 | 1015.6 |
| 20260503022132 | 44 | 343 | 1.0 | 1.0 | 0.00 | 0.00 | 0.00 | 75 | 1015.6 |
| 20260503021629 | 44 | 343 | 1.0 | 1.0 | 0.00 | 0.00 | 0.00 | 74 | 1015.6 |
| 20260503021126 | 44 | 342 | 1.0 | 1.0 | 0.00 | 0.00 | 0.00 | 74 | 1015.3 |
| 20260503020623 | 44 | 342 | 0.0 | 1.0 | 0.00 | 0.00 | 0.00 | 74 | 1015.3 |
| 20260503020120 | 44 | 342 | 1.0 | 1.0 | 0.00 | 0.00 | 0.00 | 73 | 1015.3 |
| 20260503015617 | 44 | 342 | 1.0 | 1.0 | 0.00 | 0.00 | 0.00 | 73 | 1015.3 |
| 20260503015114 | 44 | 343 | 2.0 | 2.0 | 0.00 | 0.00 | 0.00 | 73 | 1015.3 |
| 20260503014609 | 45 | 343 | 1.0 | 1.0 | 0.00 | 0.00 | 0.00 | 72 | 1015.3 |
| 20260503014107 | 45 | 342 | 1.0 | 1.0 | 0.00 | 0.00 | 0.00 | 72 | 1015.3 |
| 20260503013605 | 46 | 342 | 1.0 | 1.0 | 0.00 | 0.00 | 0.00 | 71 | 1015.0 |
| 20260503013103 | 46 | 17 | 1.0 | 1.0 | 0.00 | 0.00 | 0.00 | 70 | 1015.0 |
| 20260503012600 | 46 | 340 | 1.0 | 1.0 | 0.00 | 0.00 | 0.00 | 70 | 1015.0 |
| 20260503012056 | 46 | 340 | 1.0 | 1.0 | 0.00 | 0.00 | 0.00 | 70 | 1015.0 |
| 20260503011552 | 46 | 341 | 3.0 | 3.0 | 0.00 | 0.00 | 0.00 | 69 | 1015.3 |
| 20260503011050 | 46 | 338 | 1.0 | 1.0 | 0.00 | 0.00 | 0.00 | 69 | 1015.0 |
| 20260503010546 | 47 | 339 | 2.0 | 2.0 | 0.00 | 0.00 | 0.00 | 70 | 1015.0 |
| 20260503010044 | 47 | 339 | 0.0 | 0.0 | 0.00 | 0.00 | 0.00 | 70 | 1015.3 |
| 20260503005540 | 47 | 340 | 1.0 | 1.0 | 0.00 | 0.00 | 0.00 | 70 | 1015.3 |
| 20260503005038 | 48 | 342 | 2.0 | 2.0 | 0.00 | 0.00 | 0.00 | 69 | 1015.3 |
| 20260503004534 | 48 | 338 | 2.0 | 2.0 | 0.00 | 0.00 | 0.00 | 70 | 1015.3 |
| 20260503004032 | 48 | 350 | 3.0 | 3.0 | 0.00 | 0.00 | 0.00 | 69 | 1015.3 |
| 20260503003528 | 48 | 339 | 2.0 | 2.0 | 0.00 | 0.00 | 0.00 | 69 | 1015.3 |
| 20260503003026 | 49 | 337 | 3.0 | 3.0 | 0.00 | 0.00 | 0.00 | 68 | 1015.3 |
| 20260503002523 | 49 | 349 | 3.0 | 3.0 | 0.00 | 0.00 | 0.00 | 67 | 1015.3 |
| 20260503002019 | 49 | 328 | 0.0 | 0.0 | 0.00 | 0.00 | 0.00 | 67 | 1015.3 |
| 20260503001516 | 49 | 335 | 2.0 | 2.0 | 0.00 | 0.00 | 0.00 | 67 | 1015.3 |
| 20260503001013 | 50 | 340 | 2.0 | 3.0 | 0.00 | 0.00 | 0.00 | 66 | 1015.3 |
| 20260503000511 | 50 | 10 | 4.0 | 6.0 | 0.00 | 0.00 | 0.00 | 65 | 1015.3 |
| 20260503000007 | 50 | 341 | 3.0 | 3.0 | 0.00 | 0.00 | 0.00 | 65 | 1015.6 |
| 20260502235504 | 50 | 21 | 4.0 | 5.0 | 0.00 | 0.00 | 0.00 | 64 | 1015.3 |
| 20260502235002 | 50 | 351 | 2.0 | 2.0 | 0.00 | 0.00 | 0.00 | 64 | 1015.6 |
| 20260502234458 | 50 | 339 | 1.0 | 2.0 | 0.00 | 0.00 | 0.00 | 65 | 1015.3 |
| 20260502233956 | 50 | 320 | 2.0 | 3.0 | 0.00 | 0.00 | 0.00 | 64 | 1015.6 |
| 20260502233456 | 50 | 15 | 3.0 | 3.0 | 0.00 | 0.00 | 0.00 | 64 | 1015.6 |
| 20260502232953 | 50 | 337 | 2.0 | 2.0 | 0.00 | 0.00 | 0.00 | 64 | 1015.6 |
| 20260502232450 | 50 | 1 | 2.0 | 3.0 | 0.00 | 0.00 | 0.00 | 64 | 1015.6 |
| 20260502231946 | 50 | 332 | 4.0 | 5.0 | 0.00 | 0.00 | 0.00 | 63 | 1015.6 |
| 20260502231444 | 50 | 350 | 4.0 | 6.0 | 0.00 | 0.00 | 0.00 | 63 | 1015.6 |
| 20260502230942 | 50 | 344 | 3.0 | 3.0 | 0.00 | 0.00 | 0.00 | 63 | 1016.0 |
| 20260502230439 | 51 | 4 | 4.0 | 5.0 | 0.00 | 0.00 | 0.00 | 62 | 1016.0 |
| 20260502225937 | 51 | 47 | 4.0 | 5.0 | 0.00 | 0.00 | 0.00 | 62 | 1016.0 |
| 20260502225433 | 51 | 354 | 3.0 | 3.0 | 0.00 | 0.00 | 0.00 | 61 | 1016.0 |
| 20260502224930 | 51 | 9 | 2.0 | 2.0 | 0.00 | 0.00 | 0.00 | 61 | 1016.0 |
| 20260502224426 | 51 | 353 | 3.0 | 3.0 | 0.00 | 0.00 | 0.00 | 60 | 1016.0 |
| 20260502223923 | 51 | 319 | 2.0 | 2.0 | 0.00 | 0.00 | 0.00 | 59 | 1016.3 |
| 20260502223421 | 51 | 23 | 4.0 | 5.0 | 0.00 | 0.00 | 0.00 | 59 | 1016.3 |
| 20260502222919 | 51 | 348 | 3.0 | 3.0 | 0.00 | 0.00 | 0.00 | 59 | 1016.0 |
| 20260502222416 | 50 | 342 | 1.0 | 2.0 | 0.00 | 0.00 | 0.00 | 59 | 1016.3 |
| 20260502221911 | 51 | 10 | 5.0 | 6.0 | 0.00 | 0.00 | 0.00 | 61 | 1016.3 |
| 20260502221408 | 51 | 36 | 7.0 | 9.0 | 0.00 | 0.00 | 0.00 | 57 | 1016.7 |
| 20260502220905 | 51 | 46 | 5.0 | 6.0 | 0.00 | 0.00 | 0.00 | 58 | 1016.3 |
| 20260502220401 | 52 | 4 | 5.0 | 5.0 | 0.00 | 0.00 | 0.00 | 58 | 1016.3 |
| 20260502215857 | 53 | 34 | 3.0 | 3.0 | 0.00 | 0.00 | 0.00 | 55 | 1016.7 |
| 20260502215355 | 54 | 61 | 5.0 | 6.0 | 0.00 | 0.00 | 0.00 | 55 | 1016.7 |
| 20260502214851 | 56 | 21 | 2.0 | 2.0 | 0.00 | 0.00 | 0.00 | 49 | 1016.3 |
| 20260502214348 | 56 | 267 | 2.0 | 2.0 | 0.00 | 0.00 | 0.00 | 48 | 1016.7 |
| 20260502213846 | 56 | 68 | 2.0 | 2.0 | 0.00 | 0.00 | 0.00 | 48 | 1016.7 |
| 20260502213343 | 56 | 251 | 2.0 | 2.0 | 0.00 | 0.00 | 0.00 | 46 | 1016.7 |
| 20260502212842 | 57 | 236 | 1.0 | 1.0 | 0.00 | 0.00 | 0.00 | 45 | 1016.7 |
| 20260502212340 | 58 | 85 | 3.0 | 3.0 | 0.00 | 0.00 | 0.00 | 45 | 1016.7 |
| 20260502211836 | 57 | 81 | 3.0 | 5.0 | 0.00 | 0.00 | 0.00 | 45 | 1016.7 |
| 20260502211331 | 57 | 22 | 2.0 | 2.0 | 0.00 | 0.00 | 0.00 | 46 | 1016.7 |
| 20260502210829 | 58 | 309 | 1.0 | 1.0 | 0.00 | 0.00 | 0.00 | 47 | 1017.0 |
| 20260502210327 | 58 | 86 | 3.0 | 3.0 | 0.00 | 0.00 | 0.00 | 47 | 1016.7 |
| 20260502205824 | 57 | 297 | 0.0 | 1.0 | 0.00 | 0.00 | 0.00 | 49 | 1017.0 |
| 20260502205319 | 55 | 267 | 1.0 | 2.0 | 0.00 | 0.00 | 0.00 | 47 | 1017.0 |
| 20260502204817 | 55 | 37 | 2.0 | 3.0 | 0.00 | 0.00 | 0.00 | 49 | 1017.0 |
| 20260502204314 | 55 | 165 | 1.0 | 2.0 | 0.00 | 0.00 | 0.00 | 50 | 1017.0 |
| 20260502203812 | 55 | 249 | 1.0 | 1.0 | 0.00 | 0.00 | 0.00 | 46 | 1017.0 |
| 20260502203309 | 54 | 271 | 1.0 | 1.0 | 0.00 | 0.00 | 0.00 | 47 | 1017.3 |
| 20260502202808 | 55 | 61 | 0.0 | 0.0 | 0.00 | 0.00 | 0.00 | 49 | 1017.3 |
| 20260502202307 | 55 | 199 | 1.0 | 2.0 | 0.00 | 0.00 | 0.00 | 47 | 1017.3 |
| 20260502201804 | 54 | 286 | 0.0 | 0.0 | 0.00 | 0.00 | 0.00 | 47 | 1017.3 |
| 20260502201300 | 55 | 230 | 1.0 | 2.0 | 0.00 | 0.00 | 0.00 | 48 | 1017.3 |
| 20260502200757 | 55 | 212 | 1.0 | 2.0 | 0.00 | 0.00 | 0.00 | 51 | 1017.3 |
| 20260502200253 | 55 | 248 | 2.0 | 2.0 | 0.00 | 0.00 | 0.00 | 49 | 1017.8 |
| 20260502195751 | 55 | 242 | 1.0 | 2.0 | 0.00 | 0.00 | 0.00 | 50 | 1017.8 |
| 20260502195247 | 57 | 252 | 2.0 | 2.0 | 0.00 | 0.00 | 0.00 | 45 | 1017.8 |
| 20260502194744 | 57 | 211 | 3.0 | 3.0 | 0.00 | 0.00 | 0.00 | 50 | 1017.8 |
| 20260502194241 | 57 | 240 | 1.0 | 1.0 | 0.00 | 0.00 | 0.00 | 45 | 1018.1 |
| 20260502193736 | 57 | 55 | 3.0 | 5.0 | 0.00 | 0.00 | 0.00 | 44 | 1018.1 |
| 20260502193234 | 56 | 63 | 3.0 | 3.0 | 0.00 | 0.00 | 0.00 | 45 | 1018.1 |
| 20260502192734 | 55 | 268 | 3.0 | 5.0 | 0.00 | 0.00 | 0.00 | 45 | 1018.1 |
| 20260502192232 | 56 | 244 | 3.0 | 3.0 | 0.00 | 0.00 | 0.00 | 45 | 1018.4 |
| 20260502191728 | 56 | 209 | 2.0 | 2.0 | 0.00 | 0.00 | 0.00 | 49 | 1018.4 |
| 20260502191226 | 55 | 268 | 2.0 | 2.0 | 0.00 | 0.00 | 0.00 | 45 | 1018.4 |
| 20260502190723 | 54 | 208 | 3.0 | 3.0 | 0.00 | 0.00 | 0.00 | 45 | 1018.4 |
| 20260502190221 | 53 | 204 | 3.0 | 5.0 | 0.00 | 0.00 | 0.00 | 46 | 1018.4 |
| 20260502185720 | 54 | 71 | 1.0 | 2.0 | 0.00 | 0.00 | 0.00 | 45 | 1018.8 |
| 20260502185217 | 55 | 249 | 1.0 | 2.0 | 0.00 | 0.00 | 0.00 | 52 | 1018.4 |